Time;durP1;ratioP1;P1;durP2;ratioP2;P2;SDS_P1;SDS_P2;PMS_P1;PMS_P2;Temp;Humidity;BMP_temperature;BMP_pressure;BME280_temperature;BME280_humidity;BME280_pressure;Samples;Min_cycle;Max_cycle;Signal;HPM_P1;HPM_P2
2021/09/15 00:01:48;;;;;;;7.37;5.53;;;21.80;99.90;;;;;;5074804;28;20449;-74
2021/09/15 00:04:14;;;;;;;10.00;5.90;;;21.70;99.90;;;;;;5074655;28;20547;-74
2021/09/15 00:06:41;;;;;;;7.80;6.30;;;21.70;99.90;;;;;;5074105;28;20465;-74
2021/09/15 00:09:08;;;;;;;8.13;6.83;;;21.70;99.90;;;;;;5075021;28;20540;-75
2021/09/15 00:11:35;;;;;;;6.43;5.80;;;21.70;99.90;;;;;;5074947;28;20445;-74
2021/09/15 00:14:03;;;;;;;6.43;5.60;;;21.70;99.90;;;;;;5078645;28;20472;-74
2021/09/15 00:16:31;;;;;;;6.60;5.90;;;21.70;99.90;;;;;;5078000;28;20500;-73
2021/09/15 00:18:59;;;;;;;6.50;5.90;;;21.70;99.90;;;;;;5078992;28;20448;-74
2021/09/15 00:21:25;;;;;;;6.17;5.57;;;21.80;99.90;;;;;;5079130;28;20527;-74
2021/09/15 00:23:52;;;;;;;6.33;5.73;;;21.80;99.90;;;;;;5079008;28;20520;-74
2021/09/15 00:26:19;;;;;;;7.03;6.30;;;21.70;99.90;;;;;;5078423;28;20551;-74
2021/09/15 00:28:46;;;;;;;5.97;5.37;;;21.80;99.90;;;;;;5078018;28;20934;-74
2021/09/15 00:31:14;;;;;;;6.03;4.80;;;21.80;99.90;;;;;;5078106;28;20448;-74
2021/09/15 00:33:41;;;;;;;6.47;5.83;;;21.80;99.90;;;;;;5078207;28;20482;-74
2021/09/15 00:36:08;;;;;;;6.43;5.83;;;21.90;99.90;;;;;;5077885;28;20465;-73
2021/09/15 00:38:35;;;;;;;6.40;5.80;;;21.90;99.90;;;;;;5078867;28;20480;-74
2021/09/15 00:41:02;;;;;;;6.43;5.83;;;21.70;99.90;;;;;;5078080;28;20441;-74
2021/09/15 00:43:29;;;;;;;5.90;5.30;;;21.60;99.90;;;;;;5077635;28;20547;-74
2021/09/15 00:45:57;;;;;;;9.57;5.83;;;21.60;99.90;;;;;;5077539;28;20441;-74
2021/09/15 00:48:25;;;;;;;6.20;5.60;;;21.70;99.90;;;;;;5078240;28;20476;-73
2021/09/15 00:50:53;;;;;;;7.00;5.90;;;21.70;99.90;;;;;;5078185;28;20854;-74
2021/09/15 00:53:19;;;;;;;7.07;6.37;;;21.80;99.90;;;;;;5077583;28;20482;-74
2021/09/15 00:55:46;;;;;;;8.30;6.40;;;21.80;99.90;;;;;;5078143;28;20528;-73
2021/09/15 00:58:13;;;;;;;6.20;5.60;;;21.80;99.90;;;;;;5077936;28;20452;-74
2021/09/15 01:00:40;;;;;;;6.30;5.70;;;21.70;99.90;;;;;;5077747;28;20528;-74
2021/09/15 01:03:07;;;;;;;6.13;5.27;;;21.70;99.90;;;;;;5078192;28;20848;-74
2021/09/15 01:05:35;;;;;;;5.27;4.77;;;21.70;99.90;;;;;;5077418;28;20476;-73
2021/09/15 01:08:02;;;;;;;5.77;5.03;;;21.70;99.90;;;;;;5077249;28;20990;-74
2021/09/15 01:10:30;;;;;;;6.00;5.43;;;21.70;99.90;;;;;;5077449;28;20450;-74
2021/09/15 01:12:57;;;;;;;6.30;5.70;;;21.70;99.90;;;;;;5077666;28;20791;-74
2021/09/15 01:15:25;;;;;;;6.10;5.33;;;21.70;99.90;;;;;;5077267;28;20561;-74
2021/09/15 01:17:52;;;;;;;6.13;5.53;;;21.70;99.90;;;;;;5077922;28;20475;-74
2021/09/15 01:20:19;;;;;;;6.67;6.00;;;21.70;99.90;;;;;;5077454;28;20457;-74
2021/09/15 01:22:47;;;;;;;6.80;6.20;;;21.70;99.90;;;;;;5077477;28;20811;-74
2021/09/15 01:25:14;;;;;;;7.17;5.73;;;21.60;99.90;;;;;;5076046;28;20451;-75
2021/09/15 01:27:41;;;;;;;5.90;5.30;;;21.70;99.90;;;;;;5077642;28;20473;-74
2021/09/15 01:30:08;;;;;;;6.60;5.90;;;21.70;99.90;;;;;;5077396;28;20451;-75
2021/09/15 01:32:35;;;;;;;6.40;5.73;;;21.70;99.90;;;;;;5077549;28;20528;-75
2021/09/15 01:35:02;;;;;;;7.03;5.77;;;21.70;99.90;;;;;;5076866;28;20519;-75
2021/09/15 01:37:29;;;;;;;6.50;5.90;;;21.60;99.90;;;;;;5077246;28;20811;-74
2021/09/15 01:39:57;;;;;;;11.33;7.20;;;21.60;99.90;;;;;;5077296;28;20444;-74
2021/09/15 01:42:24;;;;;;;7.40;5.87;;;21.50;99.90;;;;;;5077226;28;20476;-74
2021/09/15 01:44:51;;;;;;;8.33;6.47;;;21.40;99.90;;;;;;5076886;28;20445;-75
2021/09/15 01:47:18;;;;;;;7.27;6.07;;;21.50;99.90;;;;;;5076614;28;20572;-75
2021/09/15 01:49:46;;;;;;;6.73;6.03;;;21.50;99.90;;;;;;5077021;28;20440;-74
2021/09/15 01:52:15;;;;;;;6.83;6.13;;;21.40;99.90;;;;;;5076844;28;20480;-74
2021/09/15 01:54:42;;;;;;;6.60;6.00;;;21.50;99.90;;;;;;5076650;28;21001;-74
2021/09/15 01:57:10;;;;;;;6.63;5.93;;;21.50;99.90;;;;;;5076799;28;20472;-74
2021/09/15 01:59:37;;;;;;;6.27;5.67;;;21.40;99.90;;;;;;5077012;28;20454;-74
2021/09/15 02:02:04;;;;;;;6.77;5.70;;;21.50;99.90;;;;;;5076750;28;20844;-74
2021/09/15 02:04:31;;;;;;;6.73;5.97;;;21.40;99.90;;;;;;5076258;28;20496;-74
2021/09/15 02:06:58;;;;;;;6.10;5.50;;;21.40;99.90;;;;;;5076336;28;20500;-74
2021/09/15 02:09:24;;;;;;;7.10;5.43;;;21.40;99.90;;;;;;5076170;28;20437;-73
2021/09/15 02:11:51;;;;;;;7.07;6.37;;;21.40;99.90;;;;;;5076447;28;20863;-73
2021/09/15 02:14:19;;;;;;;6.37;5.77;;;21.30;99.90;;;;;;5076300;28;20476;-74
2021/09/15 02:16:46;;;;;;;8.83;6.30;;;21.30;99.90;;;;;;5076033;28;20465;-73
2021/09/15 02:19:13;;;;;;;7.77;6.10;;;21.20;99.90;;;;;;5075822;28;20540;-73
2021/09/15 02:21:40;;;;;;;7.40;6.10;;;21.30;99.90;;;;;;5076464;28;20445;-74
2021/09/15 02:24:07;;;;;;;6.73;6.07;;;21.20;99.90;;;;;;5075770;28;20540;-74
2021/09/15 02:26:34;;;;;;;6.40;5.67;;;21.10;99.90;;;;;;5075442;28;20464;-74
2021/09/15 02:29:03;;;;;;;7.17;6.47;;;21.10;99.90;;;;;;5075923;28;20451;-75
2021/09/15 02:31:32;;;;;;;5.97;5.40;;;21.00;99.90;;;;;;5075416;28;20811;-73
2021/09/15 02:33:58;;;;;;;7.70;7.00;;;21.00;99.90;;;;;;5075855;28;20476;-74
2021/09/15 02:36:26;;;;;;;6.80;5.90;;;21.00;99.90;;;;;;5074989;28;20882;-74
2021/09/15 02:38:53;;;;;;;7.00;5.87;;;21.00;99.90;;;;;;5076167;28;20450;-73
2021/09/15 02:41:19;;;;;;;6.33;5.73;;;21.10;99.90;;;;;;5076050;28;20540;-74
2021/09/15 02:43:46;;;;;;;6.20;5.60;;;21.10;99.90;;;;;;5075274;28;20468;-74
2021/09/15 02:46:14;;;;;;;6.77;6.17;;;21.20;99.90;;;;;;5075191;28;20572;-74
2021/09/15 02:48:42;;;;;;;6.57;5.93;;;21.10;99.90;;;;;;5075017;28;20444;-73
2021/09/15 02:51:09;;;;;;;6.90;6.30;;;21.10;99.90;;;;;;5075090;28;20441;-73
2021/09/15 02:53:35;;;;;;;6.23;5.63;;;21.10;99.90;;;;;;5075171;28;20528;-74
2021/09/15 02:56:02;;;;;;;6.90;6.20;;;21.10;99.90;;;;;;5074726;28;20455;-73
2021/09/15 02:58:29;;;;;;;6.90;5.90;;;21.10;99.90;;;;;;5075002;28;20467;-74
2021/09/15 03:00:56;;;;;;;6.40;5.80;;;21.10;99.90;;;;;;5075392;28;20480;-73
2021/09/15 03:03:22;;;;;;;7.03;6.30;;;21.10;99.90;;;;;;5075545;28;20444;-74
2021/09/15 03:05:51;;;;;;;6.17;5.57;;;21.20;99.90;;;;;;5074931;28;21013;-73
2021/09/15 03:08:18;;;;;;;6.60;6.00;;;21.20;99.90;;;;;;5075337;28;20532;-74
2021/09/15 03:10:44;;;;;;;8.53;5.93;;;21.30;99.90;;;;;;5075118;28;20474;-75
2021/09/15 03:13:11;;;;;;;6.13;5.53;;;21.20;99.90;;;;;;5074950;28;20981;-74
2021/09/15 03:15:38;;;;;;;7.40;6.70;;;21.10;99.90;;;;;;5074829;28;20495;-74
2021/09/15 03:18:05;;;;;;;7.57;6.77;;;21.10;99.90;;;;;;5075249;28;20460;-74
2021/09/15 03:20:32;;;;;;;7.13;6.43;;;21.10;99.90;;;;;;5075383;28;20535;-74
2021/09/15 03:23:00;;;;;;;6.33;5.73;;;21.00;99.90;;;;;;5075094;28;20447;-74
2021/09/15 03:25:27;;;;;;;6.60;6.00;;;21.00;99.90;;;;;;5074632;28;20449;-74
2021/09/15 03:27:54;;;;;;;6.37;5.40;;;21.00;99.90;;;;;;5074461;28;20906;-74
2021/09/15 03:32:56;;;;;;;7.93;6.20;;;21.00;99.90;;;;;;5204665;23;20496;-73
2021/09/15 03:35:24;;;;;;;6.20;5.70;;;21.00;99.90;;;;;;4976217;28;20833;-74
2021/09/15 03:37:50;;;;;;;6.93;6.23;;;21.00;99.90;;;;;;4975783;28;20557;-73
2021/09/15 03:40:19;;;;;;;7.00;6.30;;;21.00;99.90;;;;;;4976139;28;20800;-73
2021/09/15 03:42:45;;;;;;;7.93;6.40;;;21.00;99.90;;;;;;4975490;28;21030;-73
2021/09/15 03:45:12;;;;;;;7.93;7.13;;;21.00;99.90;;;;;;4976340;28;20539;-73
2021/09/15 03:47:39;;;;;;;7.57;6.33;;;20.90;99.90;;;;;;4975777;28;20528;-73
2021/09/15 03:50:07;;;;;;;7.20;6.50;;;20.90;99.90;;;;;;4975905;28;20484;-73
2021/09/15 03:52:34;;;;;;;6.20;5.60;;;20.90;99.90;;;;;;4975504;28;20441;-74
2021/09/15 03:55:01;;;;;;;6.73;5.70;;;20.90;99.90;;;;;;4976455;28;20584;-73
2021/09/15 03:57:29;;;;;;;6.73;5.97;;;21.00;99.90;;;;;;4976164;28;20445;-74
2021/09/15 03:59:56;;;;;;;7.40;6.60;;;20.90;99.90;;;;;;4976295;28;20449;-73
2021/09/15 04:02:23;;;;;;;6.40;5.77;;;20.90;99.90;;;;;;4974950;28;20458;-73
2021/09/15 04:04:49;;;;;;;7.30;6.03;;;20.80;99.90;;;;;;4976058;28;20441;-73
2021/09/15 04:07:16;;;;;;;7.77;6.00;;;20.80;99.90;;;;;;4976004;28;20931;-73
2021/09/15 04:09:43;;;;;;;8.03;6.17;;;20.70;99.90;;;;;;4975841;28;20455;-73
2021/09/15 04:12:10;;;;;;;8.17;6.70;;;20.70;99.90;;;;;;4975029;28;20539;-73
2021/09/15 04:14:39;;;;;;;7.30;6.60;;;20.70;99.90;;;;;;4976058;28;20496;-73
2021/09/15 04:17:06;;;;;;;7.30;6.60;;;20.80;99.90;;;;;;4975981;28;20449;-73
2021/09/15 04:19:32;;;;;;;7.83;6.00;;;20.90;99.90;;;;;;4975735;28;20542;-73
2021/09/15 04:22:00;;;;;;;6.33;5.73;;;20.90;99.90;;;;;;4975827;28;20456;-74
2021/09/15 04:31:05;;;;;;;6.97;6.27;;;20.80;99.90;;;;;;4976180;28;20559;-73
2021/09/15 04:32:52;;;;;;;7.00;6.30;;;20.90;99.90;;;;;;4975137;28;21005;-73
2021/09/15 04:35:19;;;;;;;6.60;6.00;;;20.90;99.90;;;;;;4975414;28;20498;-73
2021/09/15 04:37:46;;;;;;;6.33;5.73;;;20.90;99.90;;;;;;4975661;28;20451;-73
2021/09/15 04:40:14;;;;;;;7.80;6.50;;;21.00;99.90;;;;;;4975286;28;20481;-73
2021/09/15 04:42:41;;;;;;;7.20;6.20;;;21.00;99.90;;;;;;4974665;28;20477;-73
2021/09/15 04:45:10;;;;;;;7.30;6.60;;;20.90;99.90;;;;;;4975830;28;20508;-73
2021/09/15 04:47:36;;;;;;;6.53;5.93;;;20.90;99.90;;;;;;4975559;28;20455;-73
2021/09/15 04:50:04;;;;;;;7.57;6.47;;;20.90;99.90;;;;;;4974580;28;20823;-73
2021/09/15 04:52:31;;;;;;;6.13;5.53;;;20.80;99.90;;;;;;4973799;28;20477;-73
2021/09/15 04:54:58;;;;;;;8.73;7.10;;;20.70;99.90;;;;;;4975017;28;20491;-73
2021/09/15 04:57:24;;;;;;;8.00;6.50;;;20.70;99.90;;;;;;4975170;28;20507;-73
2021/09/15 04:59:51;;;;;;;9.20;6.93;;;20.70;99.90;;;;;;4977053;28;20448;-73
2021/09/15 05:02:20;;;;;;;8.63;7.30;;;20.50;99.90;;;;;;4977842;28;20863;-73
2021/09/15 05:04:46;;;;;;;10.60;7.60;;;20.50;99.90;;;;;;4978966;28;20858;-73
2021/09/15 05:07:13;;;;;;;8.17;7.37;;;20.50;99.90;;;;;;4978130;28;20459;-73
2021/09/15 05:09:40;;;;;;;6.80;6.17;;;20.50;99.90;;;;;;4978417;28;20504;-73
2021/09/15 05:12:07;;;;;;;6.60;5.53;;;20.50;99.90;;;;;;4977931;28;20822;-74
2021/09/15 05:14:34;;;;;;;5.63;5.03;;;20.50;99.90;;;;;;4978505;28;20495;-73
2021/09/15 05:17:01;;;;;;;5.47;4.90;;;20.60;99.90;;;;;;4978447;28;20474;-73
2021/09/15 05:19:29;;;;;;;5.93;5.20;;;20.60;99.90;;;;;;4977667;28;20864;-73
2021/09/15 05:21:56;;;;;;;6.10;5.20;;;20.50;99.90;;;;;;4977502;28;20547;-74
2021/09/15 05:24:23;;;;;;;7.80;6.20;;;20.50;99.90;;;;;;4978039;28;20559;-74
2021/09/15 05:26:50;;;;;;;6.97;5.83;;;20.50;99.90;;;;;;4977866;28;20451;-73
2021/09/15 05:29:16;;;;;;;6.30;5.67;;;20.60;99.90;;;;;;4977835;28;20989;-73
2021/09/15 05:31:43;;;;;;;6.37;5.20;;;20.60;99.90;;;;;;4977647;28;21044;-73
2021/09/15 05:34:10;;;;;;;8.83;7.90;;;20.70;99.90;;;;;;4977515;28;20570;-74
2021/09/15 05:36:38;;;;;;;8.53;7.63;;;20.70;99.90;;;;;;4977603;28;20512;-73
2021/09/15 05:39:05;;;;;;;5.73;5.13;;;20.70;99.90;;;;;;4977916;28;20454;-73
2021/09/15 05:41:32;;;;;;;5.77;4.77;;;20.70;99.90;;;;;;4977269;28;20863;-73
2021/09/15 05:43:59;;;;;;;6.07;5.47;;;20.70;99.90;;;;;;4977881;28;20560;-73
2021/09/15 05:46:26;;;;;;;6.60;5.93;;;20.70;99.90;;;;;;4977816;28;20445;-73
2021/09/15 05:48:52;;;;;;;6.90;5.20;;;20.70;99.90;;;;;;4977772;28;20456;-73
2021/09/15 05:51:19;;;;;;;6.50;5.53;;;20.70;99.90;;;;;;4977626;28;20457;-73
2021/09/15 05:53:47;;;;;;;8.13;6.00;;;20.60;99.90;;;;;;4978218;28;20555;-73
2021/09/15 05:56:14;;;;;;;6.90;5.40;;;20.50;99.90;;;;;;4978082;28;20490;-74
2021/09/15 05:58:41;;;;;;;6.00;5.40;;;20.40;99.90;;;;;;4978188;28;20865;-74
2021/09/15 06:01:08;;;;;;;6.20;5.60;;;20.40;99.90;;;;;;4977639;28;20542;-74
2021/09/15 06:03:35;;;;;;;5.63;5.00;;;20.40;99.90;;;;;;4977798;28;20854;-73
2021/09/15 06:06:01;;;;;;;7.43;6.13;;;20.30;99.90;;;;;;4977297;28;20469;-73
2021/09/15 06:08:28;;;;;;;7.27;6.27;;;20.20;99.90;;;;;;4978006;28;20799;-75
2021/09/15 06:10:57;;;;;;;6.63;5.97;;;20.20;99.90;;;;;;4978010;28;20937;-73
2021/09/15 06:13:24;;;;;;;7.10;5.90;;;20.20;99.90;;;;;;4977538;28;20476;-74
2021/09/15 06:15:50;;;;;;;6.40;5.40;;;20.10;99.90;;;;;;4979142;28;20488;-75
2021/09/15 06:18:17;;;;;;;6.87;6.13;;;20.10;99.90;;;;;;4978029;28;20550;-74
2021/09/15 06:20:44;;;;;;;7.00;5.30;;;20.10;99.90;;;;;;4977320;28;20519;-73
2021/09/15 06:23:11;;;;;;;9.70;6.50;;;20.10;99.90;;;;;;4976800;28;21074;-74
2021/09/15 06:25:41;;;;;;;8.93;6.20;;;20.00;99.90;;;;;;4977493;28;20451;-73
2021/09/15 06:28:10;;;;;;;6.47;5.77;;;20.00;99.90;;;;;;4977128;28;20451;-74
2021/09/15 06:30:37;;;;;;;7.43;5.50;;;20.00;99.90;;;;;;4977440;28;20460;-74
2021/09/15 06:33:04;;;;;;;7.30;5.80;;;20.00;99.90;;;;;;4976328;28;20570;-73
2021/09/15 06:35:31;;;;;;;8.07;6.07;;;19.90;99.90;;;;;;4977417;28;20497;-74
2021/09/15 06:37:57;;;;;;;8.53;5.97;;;19.90;99.90;;;;;;4977560;28;20449;-74
2021/09/15 06:40:24;;;;;;;6.10;5.50;;;19.80;99.90;;;;;;4977630;28;20536;-74
2021/09/15 06:42:51;;;;;;;7.30;5.70;;;19.70;99.90;;;;;;4976716;28;20480;-73
2021/09/15 06:45:20;;;;;;;6.50;4.90;;;19.70;99.90;;;;;;4977425;28;20530;-74
2021/09/15 06:47:46;;;;;;;8.13;6.60;;;19.60;99.90;;;;;;4977078;28;20450;-73
2021/09/15 06:50:14;;;;;;;7.03;5.90;;;19.60;99.90;;;;;;4977293;28;20541;-73
2021/09/15 06:52:41;;;;;;;6.37;5.60;;;19.60;99.90;;;;;;4975712;28;20466;-73
2021/09/15 06:55:08;;;;;;;8.80;6.97;;;19.60;99.90;;;;;;4977239;28;20488;-73
2021/09/15 06:57:35;;;;;;;6.30;5.70;;;19.60;99.90;;;;;;4976474;28;20941;-74
2021/09/15 07:00:03;;;;;;;7.60;6.50;;;19.70;99.90;;;;;;4976486;28;20537;-74
2021/09/15 07:02:31;;;;;;;6.37;5.70;;;19.70;99.90;;;;;;4976040;28;20451;-73
2021/09/15 07:04:58;;;;;;;7.73;6.27;;;19.70;99.90;;;;;;4976403;28;20457;-73
2021/09/15 07:07:25;;;;;;;7.73;5.17;;;19.60;99.90;;;;;;4976607;28;20450;-74
2021/09/15 07:09:51;;;;;;;6.53;5.77;;;19.70;99.90;;;;;;4976147;28;20453;-74
2021/09/15 07:12:18;;;;;;;5.93;5.33;;;19.80;99.90;;;;;;4975604;28;20450;-74
2021/09/15 07:14:45;;;;;;;7.23;5.90;;;19.80;99.90;;;;;;4976139;28;20536;-74
2021/09/15 07:17:12;;;;;;;5.77;5.23;;;19.80;99.90;;;;;;4975921;28;20983;-74
2021/09/15 07:19:40;;;;;;;6.23;5.63;;;19.90;99.90;;;;;;4976185;28;20454;-74
2021/09/15 07:22:07;;;;;;;5.57;5.07;;;20.00;99.90;;;;;;4974687;28;20547;-74
2021/09/15 07:24:34;;;;;;;5.20;4.70;;;20.10;99.90;;;;;;4976006;28;20473;-73
2021/09/15 07:27:00;;;;;;;6.20;5.03;;;20.20;99.90;;;;;;4975871;28;20452;-73
2021/09/15 07:29:27;;;;;;;7.60;5.40;;;20.30;99.90;;;;;;4975462;28;20540;-74
2021/09/15 07:31:54;;;;;;;7.10;5.80;;;20.30;99.90;;;;;;4975105;28;20543;-73
2021/09/15 07:34:21;;;;;;;6.00;5.27;;;20.40;99.90;;;;;;4975569;28;21025;-74
2021/09/15 07:36:49;;;;;;;6.50;5.43;;;20.50;99.90;;;;;;4975862;28;20575;-75
2021/09/15 07:39:16;;;;;;;8.07;6.40;;;20.50;99.90;;;;;;4975566;28;20455;-74
2021/09/15 07:41:43;;;;;;;7.77;6.43;;;20.40;99.90;;;;;;4971367;28;20465;-73
2021/09/15 07:44:10;;;;;;;6.80;6.10;;;20.30;99.90;;;;;;4976795;28;20483;-71
2021/09/15 07:46:37;;;;;;;8.20;6.30;;;20.30;99.90;;;;;;4973893;28;20455;-72
2021/09/15 07:49:03;;;;;;;7.20;6.50;;;20.40;99.90;;;;;;4973736;28;20484;-72
2021/09/15 07:51:30;;;;;;;6.50;5.47;;;20.50;99.90;;;;;;4973381;28;21019;-70
2021/09/15 07:53:59;;;;;;;8.07;6.30;;;20.50;99.90;;;;;;4973846;28;20478;-74
2021/09/15 07:56:26;;;;;;;7.67;6.00;;;20.40;99.90;;;;;;4974318;28;20495;-74
2021/09/15 07:58:53;;;;;;;7.70;6.90;;;20.30;99.90;;;;;;4974593;28;20834;-73
2021/09/15 08:01:21;;;;;;;7.00;6.30;;;20.20;99.90;;;;;;4974666;28;20544;-75
2021/09/15 08:03:48;;;;;;;7.67;6.87;;;20.10;99.90;;;;;;4974346;28;20476;-73
2021/09/15 08:06:14;;;;;;;8.70;6.00;;;20.00;99.90;;;;;;4973536;28;20490;-75
2021/09/15 08:08:41;;;;;;;7.53;5.13;;;20.00;99.90;;;;;;4973686;28;20484;-77
2021/09/15 08:11:10;;;;;;;5.83;4.80;;;20.10;99.90;;;;;;4973225;28;20463;-77
2021/09/15 08:13:36;;;;;;;5.23;4.27;;;20.20;99.90;;;;;;4973194;28;20543;-77
2021/09/15 08:16:03;;;;;;;4.67;4.17;;;20.20;99.90;;;;;;4973131;28;20626;-76
2021/09/15 08:18:30;;;;;;;5.23;4.60;;;20.20;99.90;;;;;;4973321;28;20456;-76
2021/09/15 08:20:57;;;;;;;6.03;4.30;;;20.30;99.90;;;;;;4973311;28;21001;-76
2021/09/15 08:23:24;;;;;;;5.33;4.37;;;20.30;99.90;;;;;;4974284;28;20482;-74
2021/09/15 08:25:51;;;;;;;5.33;4.60;;;20.30;99.90;;;;;;4974760;28;20498;-74
2021/09/15 08:28:19;;;;;;;5.40;4.30;;;20.20;99.90;;;;;;4975025;28;20484;-74
2021/09/15 08:30:46;;;;;;;5.63;4.60;;;20.20;99.90;;;;;;4975007;28;20926;-74
2021/09/15 08:33:13;;;;;;;5.20;4.47;;;20.20;99.90;;;;;;4974144;28;21061;-74
2021/09/15 08:35:40;;;;;;;5.70;5.13;;;20.10;99.90;;;;;;4978202;28;20830;-74
2021/09/15 08:38:10;;;;;;;5.70;5.07;;;20.00;99.90;;;;;;4978513;28;20455;-74
2021/09/15 08:40:37;;;;;;;6.10;5.53;;;20.10;99.90;;;;;;4978792;28;20557;-74
2021/09/15 08:43:04;;;;;;;6.70;5.27;;;20.10;99.90;;;;;;4978426;28;20480;-74
2021/09/15 08:45:32;;;;;;;5.70;5.10;;;20.20;99.90;;;;;;4978674;28;20558;-74
2021/09/15 08:48:02;;;;;;;5.43;4.93;;;20.20;99.90;;;;;;4978219;28;20449;-74
2021/09/15 08:50:29;;;;;;;6.23;5.50;;;20.20;99.90;;;;;;4978766;28;20443;-74
2021/09/15 08:52:57;;;;;;;6.00;5.37;;;20.20;99.90;;;;;;4978049;28;20475;-74
2021/09/15 08:55:24;;;;;;;5.00;4.57;;;20.20;99.90;;;;;;4978713;28;20457;-74
2021/09/15 08:57:51;;;;;;;4.87;4.37;;;20.20;99.90;;;;;;4979191;28;20532;-74
2021/09/15 09:00:18;;;;;;;6.77;5.13;;;20.20;99.90;;;;;;4979117;28;20440;-74
2021/09/15 09:02:48;;;;;;;7.70;5.93;;;20.20;99.90;;;;;;4978548;28;20556;-74
2021/09/15 09:05:15;;;;;;;5.00;4.60;;;20.10;99.90;;;;;;4979370;28;20797;-74
2021/09/15 09:07:42;;;;;;;4.83;4.33;;;20.10;99.90;;;;;;4978244;28;20441;-74
2021/09/15 09:10:12;;;;;;;4.90;3.80;;;20.00;99.90;;;;;;4978147;28;20436;-74
2021/09/15 09:12:40;;;;;;;5.00;4.50;;;19.90;99.90;;;;;;4977896;28;20882;-75
2021/09/15 09:15:17;;;;;;;5.30;4.17;;;19.90;99.90;;;;;;4978134;28;20455;-74
2021/09/15 09:17:46;;;;;;;4.10;3.70;;;19.80;99.90;;;;;;4978023;28;20483;-74
2021/09/15 09:20:27;;;;;;;4.57;4.03;;;19.80;99.90;;;;;;4978039;28;20973;-74
2021/09/15 09:23:06;;;;;;;5.80;4.33;;;19.80;99.90;;;;;;4977515;28;20574;-74
2021/09/15 09:25:35;;;;;;;4.50;4.10;;;19.80;99.90;;;;;;4977442;28;20461;-74
2021/09/15 09:28:02;;;;;;;4.30;3.90;;;19.70;99.90;;;;;;4977718;28;20534;-74
2021/09/15 09:30:36;;;;;;;4.90;3.50;;;19.70;99.90;;;;;;4977607;28;20932;-74
2021/09/15 09:33:05;;;;;;;4.53;4.10;;;19.70;99.90;;;;;;4977246;28;20825;-74
2021/09/15 09:35:40;;;;;;;4.00;3.67;;;19.60;99.90;;;;;;4978307;28;20542;-74
2021/09/15 09:38:26;;;;;;;4.63;4.17;;;19.60;99.90;;;;;;4977235;28;20535;-74
2021/09/15 09:40:58;;;;;;;4.03;3.73;;;19.60;99.90;;;;;;4977269;28;20462;-74
2021/09/15 09:43:25;;;;;;;3.50;3.20;;;19.50;99.90;;;;;;4977494;28;20478;-74
2021/09/15 09:45:52;;;;;;;5.63;4.43;;;19.50;99.90;;;;;;4977327;28;20452;-74
2021/09/15 09:48:39;;;;;;;5.90;4.33;;;19.50;99.90;;;;;;4977648;28;20544;-74
2021/09/15 09:51:25;;;;;;;4.40;4.00;;;19.50;99.90;;;;;;4977042;28;20952;-75
2021/09/15 09:54:06;;;;;;;5.90;4.10;;;19.40;99.90;;;;;;4977004;28;20473;-74
2021/09/15 09:56:35;;;;;;;4.27;3.70;;;19.50;99.90;;;;;;4976862;28;20476;-74
2021/09/15 09:59:03;;;;;;;5.00;4.40;;;19.50;99.90;;;;;;4977023;28;20447;-74
2021/09/15 10:01:31;;;;;;;4.50;4.10;;;19.50;99.90;;;;;;4976693;28;20798;-75
2021/09/15 10:04:01;;;;;;;4.47;4.03;;;19.60;99.90;;;;;;4977756;28;20478;-74
2021/09/15 10:06:28;;;;;;;5.73;4.40;;;19.70;99.90;;;;;;4977563;28;20452;-74
2021/09/15 10:08:55;;;;;;;4.77;3.87;;;19.70;99.90;;;;;;4977584;28;20449;-75
2021/09/15 10:11:23;;;;;;;4.43;4.00;;;19.80;99.90;;;;;;4977871;28;20451;-74
2021/09/15 10:13:50;;;;;;;21.07;16.60;;;20.00;99.90;;;;;;4977752;28;20468;-74
2021/09/15 10:16:22;;;;;;;7.23;5.00;;;20.10;99.90;;;;;;4977204;28;20487;-74
2021/09/15 10:18:54;;;;;;;4.63;4.23;;;20.30;99.90;;;;;;4977239;28;20456;-74
2021/09/15 10:21:27;;;;;;;5.00;4.17;;;20.50;99.90;;;;;;4976701;28;20459;-74
2021/09/15 10:23:53;;;;;;;5.30;4.50;;;20.60;99.90;;;;;;4976415;28;20955;-74
2021/09/15 10:26:29;;;;;;;4.40;4.00;;;20.70;99.90;;;;;;4976285;28;20536;-75
2021/09/15 10:29:24;;;;;;;4.77;4.00;;;20.80;99.90;;;;;;4976573;28;20825;-74
2021/09/15 10:31:58;;;;;;;4.13;3.80;;;20.90;99.90;;;;;;4976114;28;20551;-74
2021/09/15 10:34:50;;;;;;;7.03;5.63;;;21.00;99.90;;;;;;4975754;28;21062;-74
2021/09/15 10:37:51;;;;;;;4.57;4.13;;;21.10;99.90;;;;;;4976153;28;21093;-74
2021/09/15 10:40:44;;;;;;;4.37;4.00;;;21.10;99.90;;;;;;4975904;28;20547;-74
2021/09/15 10:43:41;;;;;;;5.23;4.17;;;21.20;99.90;;;;;;4967886;28;20480;-74
2021/09/15 10:46:27;;;;;;;4.70;4.10;;;21.20;99.90;;;;;;4975968;28;20452;-75
2021/09/15 10:49:30;;;;;;;5.30;3.80;;;21.10;99.90;;;;;;4975993;28;20464;-75
2021/09/15 10:52:23;;;;;;;4.53;4.10;;;21.00;99.90;;;;;;4975690;28;20479;-75
2021/09/15 10:54:52;;;;;;;4.97;4.50;;;21.00;99.90;;;;;;4976211;28;20438;-75
2021/09/15 10:57:22;;;;;;;5.00;4.53;;;20.90;99.90;;;;;;4974916;28;20487;-75
2021/09/15 10:59:54;;;;;;;5.07;4.57;;;20.80;99.90;;;;;;4975910;28;20558;-75
2021/09/15 11:02:27;;;;;;;4.90;4.40;;;20.80;99.90;;;;;;4975393;28;20448;-75
2021/09/15 11:04:54;;;;;;;5.13;4.67;;;20.80;99.90;;;;;;4976269;28;20847;-75
2021/09/15 11:07:58;;;;;;;5.93;5.33;;;20.80;99.90;;;;;;4975232;28;20445;-75
2021/09/15 11:10:42;;;;;;;4.70;4.20;;;20.90;99.90;;;;;;4975514;28;20531;-75
2021/09/15 11:13:12;;;;;;;4.63;4.03;;;21.00;99.90;;;;;;4975626;28;21110;-75
2021/09/15 11:15:41;;;;;;;4.90;4.50;;;21.00;99.90;;;;;;4976127;28;20528;-75
2021/09/15 11:18:09;;;;;;;6.43;5.20;;;21.10;99.90;;;;;;4975016;28;20501;-75
2021/09/15 11:20:38;;;;;;;5.60;4.70;;;21.20;99.90;;;;;;4975316;28;20451;-75
2021/09/15 11:23:07;;;;;;;4.90;4.40;;;21.30;99.90;;;;;;4975191;28;21022;-75
2021/09/15 11:25:35;;;;;;;6.73;6.03;;;21.30;99.90;;;;;;4975562;28;20527;-75
2021/09/15 11:28:12;;;;;;;4.90;4.43;;;21.30;99.90;;;;;;4975672;28;20453;-75
2021/09/15 11:30:40;;;;;;;5.53;5.03;;;21.30;99.90;;;;;;4975357;28;20544;-75
2021/09/15 11:33:08;;;;;;;5.37;4.17;;;21.30;99.90;;;;;;4974499;28;21007;-75
2021/09/15 11:35:36;;;;;;;5.13;4.33;;;21.30;99.90;;;;;;4975559;28;20532;-75
2021/09/15 11:38:04;;;;;;;5.70;4.90;;;21.30;99.90;;;;;;4975276;28;20572;-75
2021/09/15 11:40:33;;;;;;;4.40;4.00;;;21.30;99.90;;;;;;4975493;28;20516;-75
2021/09/15 11:43:04;;;;;;;4.57;4.17;;;21.30;99.90;;;;;;4974923;28;20496;-74
2021/09/15 11:45:34;;;;;;;5.00;4.50;;;21.30;99.90;;;;;;4975225;28;20449;-74
2021/09/15 11:48:01;;;;;;;5.70;4.70;;;21.40;99.90;;;;;;4975085;28;20984;-75
2021/09/15 11:50:31;;;;;;;6.27;4.87;;;21.40;99.90;;;;;;4975231;28;20448;-75
2021/09/15 11:53:02;;;;;;;5.33;4.87;;;21.40;99.90;;;;;;4974655;28;20508;-75
2021/09/15 11:55:30;;;;;;;4.53;4.13;;;21.40;99.90;;;;;;4974963;28;20817;-75
2021/09/15 11:58:02;;;;;;;5.00;4.60;;;21.40;99.90;;;;;;4974700;28;20520;-75
2021/09/15 12:00:30;;;;;;;4.87;4.40;;;21.50;99.90;;;;;;4975048;28;20543;-75
2021/09/15 12:03:06;;;;;;;5.07;4.60;;;21.40;99.90;;;;;;4974763;28;20493;-74
2021/09/15 12:05:33;;;;;;;6.33;4.70;;;21.40;99.90;;;;;;4975536;28;20801;-74
2021/09/15 12:08:00;;;;;;;5.00;4.50;;;21.40;99.90;;;;;;4975630;28;20535;-75
2021/09/15 12:10:28;;;;;;;5.60;5.00;;;21.40;99.90;;;;;;4978957;28;20467;-75
2021/09/15 12:12:57;;;;;;;6.80;4.87;;;21.40;99.90;;;;;;4978779;28;20869;-75
2021/09/15 12:15:25;;;;;;;4.53;4.13;;;21.50;99.90;;;;;;4978732;28;20940;-74
2021/09/15 12:17:57;;;;;;;5.77;5.13;;;21.40;99.90;;;;;;4978968;28;20491;-75
2021/09/15 12:20:46;;;;;;;5.20;4.70;;;21.40;99.90;;;;;;4978501;28;20459;-75
2021/09/15 12:23:13;;;;;;;5.27;4.63;;;21.40;99.90;;;;;;4978095;28;20473;-74
2021/09/15 12:25:50;;;;;;;6.37;4.40;;;21.50;99.90;;;;;;4978986;28;20790;-74
2021/09/15 12:28:22;;;;;;;5.53;4.77;;;21.40;99.90;;;;;;4978916;28;20476;-74
2021/09/15 12:30:49;;;;;;;4.70;4.20;;;21.40;99.90;;;;;;4978817;28;20453;-74
2021/09/15 12:33:24;;;;;;;5.43;4.87;;;21.40;99.90;;;;;;4978089;28;20486;-74
2021/09/15 12:36:09;;;;;;;4.87;4.37;;;21.50;99.90;;;;;;4978588;28;20445;-74
2021/09/15 12:38:48;;;;;;;5.33;4.67;;;21.50;99.90;;;;;;4978466;28;20496;-74
2021/09/15 12:41:15;;;;;;;6.27;5.17;;;21.50;99.90;;;;;;4977912;28;20456;-74
2021/09/15 12:43:42;;;;;;;4.93;4.50;;;21.50;99.90;;;;;;4978312;28;20559;-74
2021/09/15 12:46:23;;;;;;;5.07;4.57;;;21.60;99.90;;;;;;4978278;28;20528;-75
2021/09/15 12:48:50;;;;;;;5.57;5.07;;;21.60;99.90;;;;;;4978306;28;20446;-74
2021/09/15 12:51:19;;;;;;;5.57;4.70;;;21.70;99.90;;;;;;4978015;28;20536;-75
2021/09/15 12:53:49;;;;;;;7.27;4.47;;;21.70;99.90;;;;;;4978101;28;20473;-74
2021/09/15 12:56:16;;;;;;;5.77;4.83;;;21.80;99.90;;;;;;4977724;28;20999;-74
2021/09/15 12:58:43;;;;;;;5.17;4.67;;;21.80;99.90;;;;;;4978060;28;20492;-74
2021/09/15 13:01:19;;;;;;;5.17;4.70;;;21.80;99.90;;;;;;4977986;28;20445;-74
2021/09/15 13:03:51;;;;;;;5.83;4.93;;;21.90;99.90;;;;;;4977679;28;20981;-74